Time;durP1;ratioP1;P1;durP2;ratioP2;P2;SDS_P1;SDS_P2;PMS_P1;PMS_P2;Temp;Humidity;BMP_temperature;BMP_pressure;BME280_temperature;BME280_humidity;BME280_pressure;Samples;Min_cycle;Max_cycle;Signal;HPM_P1;HPM_P2
2023/08/16 00:01:57;;;;;;;;;;;20.30;99.90;;;;;;5094113;28;19916;-69
2023/08/16 00:04:23;;;;;;;;;;;20.30;99.90;;;;;;5094379;28;20005;-71
2023/08/16 00:06:49;;;;;;;;;;;20.30;99.90;;;;;;5093311;28;19908;-71
2023/08/16 00:09:15;;;;;;;;;;;20.30;99.90;;;;;;5094307;28;20341;-70
2023/08/16 00:11:41;;;;;;;;;;;20.30;99.90;;;;;;5093462;28;19986;-69
2023/08/16 00:14:06;;;;;;;;;;;20.30;99.90;;;;;;5094166;28;20341;-71
2023/08/16 00:16:32;;;;;;;;;;;20.30;99.90;;;;;;5094005;28;19908;-69
2023/08/16 00:18:57;;;;;;;;;;;20.30;99.90;;;;;;5093725;28;19944;-70
2023/08/16 00:21:24;;;;;;;;;;;20.30;99.90;;;;;;5094185;28;20312;-71
2023/08/16 00:23:49;;;;;;;;;;;20.30;99.90;;;;;;5093322;28;20023;-70
2023/08/16 00:26:15;;;;;;;;;;;20.30;99.90;;;;;;5094066;28;19954;-71
2023/08/16 00:28:41;;;;;;;;;;;20.30;99.90;;;;;;5111657;28;19908;-70
2023/08/16 00:31:07;;;;;;;;;;;20.30;99.90;;;;;;5114249;28;19930;-71
2023/08/16 00:33:33;;;;;;;;;;;20.30;99.90;;;;;;5113871;28;19911;-70
2023/08/16 00:35:58;;;;;;;;;;;20.30;99.90;;;;;;5113539;28;19915;-70
2023/08/16 00:38:24;;;;;;;;;;;;;;;;;;5113900;28;19969;-71
2023/08/16 00:40:50;;;;;;;;;;;;;;;;;;5112281;27;19908;-70
2023/08/16 00:43:16;;;;;;;;;;;;;;;;;;5114019;28;19998;-71
2023/08/16 00:45:42;;;;;;;;;;;;;;;;;;5113546;28;19954;-70
2023/08/16 00:48:08;;;;;;;;;;;;;;;;;;5113754;28;20002;-70
2023/08/16 00:50:34;;;;;;;;;;;;;;;;;;5113137;28;19943;-70
2023/08/16 00:53:00;;;;;;;;;;;;;;;;;;5113238;28;19908;-71
2023/08/16 00:55:26;;;;;;;;;;;;;;;;;;5113627;28;20006;-70
2023/08/16 00:57:52;;;;;;;;;;;;;;;;;;5112787;28;19961;-70
2023/08/16 01:00:18;;;;;;;;;;;;;;;;;;5113830;28;20367;-70
2023/08/16 01:02:44;;;;;;;;;;;;;;;;;;5114261;28;19919;-71
2023/08/16 01:05:10;;;;;;;;;;;;;;;;;;5132592;28;19919;-71
2023/08/16 01:07:35;;;;;;;;;;;;;;;;;;5132640;28;19919;-70
2023/08/16 01:10:01;;;;;;;;;;;;;;;;;;5133530;28;19943;-70
2023/08/16 01:12:27;;;;;;;;;;;;;;;;;;5134072;28;19962;-69
2023/08/16 01:14:53;;;;;;;;;;;;;;;;;;5134011;28;19922;-69
2023/08/16 01:17:19;;;;;;;;;;;;;;;;;;5134154;28;19987;-70
2023/08/16 01:19:45;;;;;;;;;;;;;;;;;;5132353;28;19961;-70
2023/08/16 01:22:11;;;;;;;;;;;;;;;;;;5116053;28;20353;-69
2023/08/16 01:24:37;;;;;;;;;;;;;;;;;;5113970;28;19908;-69
2023/08/16 01:27:02;;;;;;;;;;;;;;;;;;5109441;28;19908;-69
2023/08/16 01:29:28;;;;;;;;;;;;;;;;;;5093703;28;20076;-70
2023/08/16 01:31:55;;;;;;;;;;;;;;;;;;5074331;28;19914;-69
2023/08/16 01:34:21;;;;;;;;;;;;;;;;;;5093189;28;19908;-71
2023/08/16 01:36:48;;;;;;;;;;;;;;;;;;5092378;28;19916;-69
2023/08/16 01:39:13;;;;;;;;;;;;;;;;;;5092819;28;19935;-70
2023/08/16 01:41:39;;;;;;;;;;;;;;;;;;5092124;28;20360;-69
2023/08/16 01:44:05;;;;;;;;;;;;;;;;;;5092546;28;20308;-70
2023/08/16 01:46:31;;;;;;;;;;;;;;;;;;5092633;28;20382;-69
2023/08/16 01:48:57;;;;;;;;;;;;;;;;;;5091904;28;19995;-69
2023/08/16 01:51:23;;;;;;;;;;;;;;;;;;5092665;28;19909;-69
2023/08/16 01:53:49;;;;;;;;;;;;;;;;;;5092077;28;19908;-69
2023/08/16 01:56:15;;;;;;;;;;;;;;;;;;5092162;28;19959;-69
2023/08/16 01:58:41;;;;;;;;;;;;;;;;;;5091866;28;20003;-69
2023/08/16 02:01:06;;;;;;;;;;;;;;;;;;5092356;28;19978;-69
2023/08/16 02:03:33;;;;;;;;;;;;;;;;;;5094682;28;19912;-69
2023/08/16 02:05:58;;;;;;;;;;;;;;;;;;5095618;28;19913;-69
2023/08/16 02:08:24;;;;;;;;;;;;;;;;;;5096638;28;19908;-69
2023/08/16 02:10:50;;;;;;;;;;;;;;;;;;5095405;28;19908;-69
2023/08/16 02:13:16;;;;;;;;;;;;;;;;;;5096229;28;20007;-69
2023/08/16 02:15:42;;;;;;;;;;;;;;;;;;5095846;28;20004;-69
2023/08/16 02:18:10;;;;;;;;;;;;;;;;;;5096289;28;19908;-69
2023/08/16 02:20:38;;;;;;;;;;;;;;;;;;5096073;28;20000;-69
2023/08/16 02:23:04;;;;;;;;;;;;;;;;;;5095570;28;19924;-69
2023/08/16 02:25:30;;;;;;;;;;;;;;;;;;5095873;28;20375;-69
2023/08/16 02:27:56;;;;;;;;;;;;;;;;;;5094807;28;19950;-69
2023/08/16 02:30:21;;;;;;;;;;;;;;;;;;5096372;28;19908;-70
2023/08/16 02:32:47;;;;;;;;;;;;;;;;;;5076852;28;19945;-69
2023/08/16 02:35:13;;;;;;;;;;;;;;;;;;5095730;28;19959;-69
2023/08/16 02:37:39;;;;;;;;;;;;;;;;;;5095840;28;20241;-70
2023/08/16 02:40:05;;;;;;;;;;;;;;;;;;5094733;28;19958;-69
2023/08/16 02:42:31;;;;;;;;;;;;;;;;;;5096031;27;20395;-69
2023/08/16 02:44:57;;;;;;;;;;;;;;;;;;5094823;28;19951;-70
2023/08/16 02:47:22;;;;;;;;;;;;;;;;;;5095657;28;20357;-69
2023/08/16 02:49:48;;;;;;;;;;;;;;;;;;5094621;28;19908;-69
2023/08/16 02:52:14;;;;;;;;;;;;;;;;;;5095486;28;19947;-69
2023/08/16 02:54:40;;;;;;;;;;;;;;;;;;5095380;28;19908;-69
2023/08/16 02:57:06;;;;;;;;;;;;;;;;;;5094640;28;19915;-70
2023/08/16 02:59:32;;;;;;;;;;;;;;;;;;5095304;28;20408;-70
2023/08/16 03:01:58;;;;;;;;;;;;;;;;;;5094282;28;19916;-70
2023/08/16 03:04:24;;;;;;;;;;;;;;;;;;5095436;28;19912;-70
2023/08/16 03:06:50;;;;;;;;;;;;;;;;;;5094592;28;19919;-70
2023/08/16 03:09:16;;;;;;;;;;;;;;;;;;5095224;28;19908;-70
2023/08/16 03:11:42;;;;;;;;;;;;;;;;;;5095055;28;19961;-70
2023/08/16 03:14:07;;;;;;;;;;;;;;;;;;5093935;28;19908;-70
2023/08/16 03:16:33;;;;;;;;;;;;;;;;;;5095334;28;20341;-70
2023/08/16 03:19:00;;;;;;;;;;;;;;;;;;5094017;28;19912;-70
2023/08/16 03:21:26;;;;;;;;;;;;;;;;;;5095112;28;19922;-70
2023/08/16 03:23:51;;;;;;;;;;;;;;;;;;5094199;28;20331;-70
2023/08/16 03:26:17;;;;;;;;;;;;;;;;;;5094547;28;19915;-70
2023/08/16 03:28:43;;;;;;;;;;;;;;;;;;5076386;28;19923;-70
2023/08/16 03:31:09;;;;;;;;;;;;;;;;;;5073827;28;20008;-70
2023/08/16 03:33:35;;;;;;;;;;;;;;;;;;5074716;28;19915;-71
2023/08/16 03:36:01;;;;;;;;;;;;;;;;;;5073816;28;19915;-70
2023/08/16 03:38:27;;;;;;;;;;;;;;;;;;5074445;28;19915;-70
2023/08/16 03:40:53;;;;;;;;;;;;;;;;;;5074862;27;20250;-69
2023/08/16 03:43:19;;;;;;;;;;;;;;;;;;5094764;28;19913;-70
2023/08/16 03:45:45;;;;;;;;;;;;;;;;;;5094351;28;19915;-70
2023/08/16 03:48:11;;;;;;;;;;;;;;;;;;5094083;28;20260;-70
2023/08/16 03:50:36;;;;;;;;;;;;;;;;;;5094824;28;19908;-70
2023/08/16 03:53:03;;;;;;;;;;;;;;;;;;5093636;28;20376;-70
2023/08/16 03:55:29;;;;;;;;;;;;;;;;;;5075962;28;19912;-70
2023/08/16 03:57:54;;;;;;;;;;;;;;;;;;5093279;28;19908;-70
2023/08/16 04:00:20;;;;;;;;;;;;;;;;;;5094135;28;20449;-70
2023/08/16 04:02:46;;;;;;;;;;;;;;;;;;5093901;28;19923;-70
2023/08/16 04:05:12;;;;;;;;;;;;;;;;;;5093850;28;20250;-70
2023/08/16 04:07:38;;;;;;;;;;;;;;;;;;5094164;28;19908;-70
2023/08/16 04:10:04;;;;;;;;;;;;;;;;;;5093387;28;19912;-70
2023/08/16 04:12:30;;;;;;;;;;;;;;;;;;5093993;28;20061;-71
2023/08/16 04:14:56;;;;;;;;;;;;;;;;;;5093020;28;19954;-70
2023/08/16 04:17:22;;;;;;;;;;;;;;;;;;5094144;28;19909;-70
2023/08/16 04:19:48;;;;;;;;;;;;;;;;;;5093304;28;19909;-70
2023/08/16 04:22:14;;;;;;;;;;;;;;;;;;5093440;28;19923;-70
2023/08/16 04:24:40;;;;;;;;;;;;;;;;;;5093632;28;20283;-71
2023/08/16 04:27:06;;;;;;;;;;;;;;;;;;5088185;28;19909;-70
2023/08/16 04:29:32;;;;;;;;;;;;;;;;;;5073235;28;19944;-70
2023/08/16 04:31:58;;;;;;;;;;;;;;;;;;5072499;28;19912;-70
2023/08/16 04:34:24;;;;;;;;;;;;;;;;;;5073497;28;19966;-70
2023/08/16 04:36:50;;;;;;;;;;;;;;;;;;5072964;28;20277;-69
2023/08/16 04:39:15;;;;;;;;;;;;;;;;;;5072764;28;19915;-70
2023/08/16 04:41:41;;;;;;;;;;;;;;;;;;5081405;27;20394;-70
2023/08/16 04:44:07;;;;;;;;;;;;;;;;;;5092624;28;19908;-70
2023/08/16 04:46:33;;;;;;;;;;;;;;;;;;5093531;28;19912;-70
2023/08/16 04:48:59;;;;;;;;;;;;;;;;;;5092333;28;20364;-70
2023/08/16 04:51:26;;;;;;;;;;;;;;;;;;5093355;28;19908;-70
2023/08/16 04:53:52;;;;;;;;;;;;;;;;;;5092527;28;19908;-70
2023/08/16 04:56:18;;;;;;;;;;;;;;;;;;5093419;28;19908;-70
2023/08/16 04:58:44;;;;;;;;;;;;;;;;;;5093200;28;19961;-70
2023/08/16 05:01:10;;;;;;;;;;;;;;;;;;5092337;28;20525;-70
2023/08/16 05:03:36;;;;;;;;;;;;;;;;;;5093096;28;19912;-70
2023/08/16 05:06:02;;;;;;;;;;;;;;;;;;5074127;28;19908;-70
2023/08/16 05:08:28;;;;;;;;;;;;;;;;;;5093015;28;20285;-70
2023/08/16 05:10:54;;;;;;;;;;;;;;;;;;5092103;28;19919;-70
2023/08/16 05:13:20;;;;;;;;;;;;;;;;;;5092950;28;19940;-70
2023/08/16 05:15:46;;;;;;;;;;;;;;;;;;5093090;28;19909;-70
2023/08/16 05:18:12;;;;;;;;;;;;;;;;;;5092206;28;19968;-70
2023/08/16 05:20:37;;;;;;;;;;;;;;;;;;5092750;28;20384;-70
2023/08/16 05:23:03;;;;;;;;;;;;;;;;;;5091991;28;19916;-70
2023/08/16 05:25:29;;;;;;;;;;;;;;;;;;5092882;28;19918;-70
2023/08/16 05:27:58;;;;;;;;;;;;;;;;;;5091897;28;20353;-70
2023/08/16 05:30:25;;;;;;;;;;;;;;;;;;5092886;28;19951;-71
2023/08/16 05:32:51;;;;;;;;;;;;;;;;;;5092679;28;20242;-70
2023/08/16 05:35:17;;;;;;;;;;;;;;;;;;5092422;28;19908;-70
2023/08/16 05:37:43;;;;;;;;;;;;;;;;;;5092608;28;20288;-71
2023/08/16 05:40:09;;;;;;;;;;;;;;;;;;5091782;28;19908;-70
2023/08/16 05:42:35;;;;;;;;;;;;;;;;;;5092372;28;19920;-70
2023/08/16 05:45:01;;;;;;;;;;;;;;;;;;5091975;28;19908;-71
2023/08/16 05:47:27;;;;;;;;;;;;;;;;;;5092555;28;19939;-70
2023/08/16 05:49:53;;;;;;;;;;;;;;;;;;5092197;28;20365;-70
2023/08/16 05:52:18;;;;;;;;;;;;;;;;;;5092101;28;19908;-71
2023/08/16 05:54:44;;;;;;;;;;;;;;;;;;5092837;28;20383;-70
2023/08/16 05:57:10;;;;;;;;;;;;;;;;;;5091500;28;19995;-70
2023/08/16 05:59:36;;;;;;;;;;;;;;;;;;5092657;28;19908;-71
2023/08/16 06:02:02;;;;;;;;;;;;;;;;;;5091648;28;19912;-70
2023/08/16 06:04:28;;;;;;;;;;;;;;;;;;5092602;28;19974;-71
2023/08/16 06:06:54;;;;;;;;;;;;;;;;;;5092368;28;19928;-71
2023/08/16 06:09:20;;;;;;;;;;;;;;;;;;5092007;28;19908;-71
2023/08/16 06:11:46;;;;;;;;;;;;;;;;;;5092502;28;19915;-71
2023/08/16 06:14:12;;;;;;;;;;;;;;;;;;5091605;28;19909;-70
2023/08/16 06:16:38;;;;;;;;;;;;;;;;;;5092379;28;19944;-71
2023/08/16 06:19:03;;;;;;;;;;;;;;;;;;5091514;28;19912;-71
2023/08/16 06:21:29;;;;;;;;;;;;;;;;;;5092146;28;20382;-71
2023/08/16 06:23:56;;;;;;;;;;;;;;;;;;5091903;28;19912;-70
2023/08/16 06:26:22;;;;;;;;;;;;;;;;;;5091888;28;20314;-71
2023/08/16 06:28:48;;;;;;;;;;;;;;;;;;5092157;28;19908;-71
2023/08/16 06:31:15;;;;;;;;;;;;;;;;;;5091403;28;20016;-72
2023/08/16 06:33:41;;;;;;;;;;;;;;;;;;5092366;28;19962;-71
2023/08/16 06:36:07;;;;;;;;;;;;;;;;;;5091389;28;19908;-71
2023/08/16 06:38:33;;;;;;;;;;;;;;;;;;5092120;28;19909;-72
2023/08/16 06:40:59;;;;;;;;;;;;;;;;;;5090762;28;19908;-71
2023/08/16 06:43:25;;;;;;;;;;;;;;;;;;5092008;28;19993;-71
2023/08/16 06:45:50;;;;;;;;;;;;;;;;;;5091890;28;19912;-71
2023/08/16 06:48:16;;;;;;;;;;;;;;;;;;5091143;28;19965;-71
2023/08/16 06:50:43;;;;;;;;;;;;;;;;;;5095677;28;19954;-71
2023/08/16 06:53:08;;;;;;;;;;;;;;;;;;5094843;28;20002;-71
2023/08/16 06:55:37;;;;;;;;;;;;;;;;;;5095581;28;19968;-71
2023/08/16 06:58:05;;;;;;;;;;;;;;;;;;5094701;28;19955;-71
2023/08/16 07:00:31;;;;;;;;;;;;;;;;;;5095560;28;20349;-72
2023/08/16 07:02:57;;;;;;;;;;;;;;;;;;5094909;28;19925;-70
2023/08/16 07:05:25;;;;;;;;;;;;;;;;;;5094720;28;19931;-72
2023/08/16 07:07:51;;;;;;;;;;;;;;;;;;5095353;28;19950;-71
2023/08/16 07:10:17;;;;;;;;;;;;;;;;;;5094680;28;20187;-71
2023/08/16 07:12:44;;;;;;;;;;;;;;;;;;5095132;28;20379;-72
2023/08/16 07:15:11;;;;;;;;;;;;;;;;;;5094228;28;19915;-71
2023/08/16 07:17:36;;;;;;;;;;;;;;;;;;5095117;28;20328;-71
2023/08/16 07:20:02;;;;;;;;;;;;;;;;;;5094602;28;19908;-71
2023/08/16 07:22:28;;;;;;;;;;;;;;;;;;5095047;28;19971;-72
2023/08/16 07:24:54;;;;;;;;;;;;;;;;;;5094653;28;19912;-71
2023/08/16 07:27:20;;;;;;;;;;;;;;;;;;5094153;28;19915;-71
2023/08/16 07:29:46;;;;;;;;;;;;;;;;;;5094597;28;19954;-72
2023/08/16 07:32:12;;;;;;;;;;;;;;;;;;5094091;28;19909;-71
2023/08/16 07:34:38;;;;;;;;;;;;;;;;;;5094953;28;20041;-71
2023/08/16 07:37:04;;;;;;;;;;;;;;;;;;5094082;28;19920;-71
2023/08/16 07:39:31;;;;;;;;;;;;;;;;;;5094838;28;19915;-72
2023/08/16 07:41:57;;;;;;;;;;;;;;;;;;5094631;28;19946;-70
2023/08/16 07:44:23;;;;;;;;;;;;;;;;;;5093956;28;19938;-70
2023/08/16 07:46:49;;;;;;;;;;;;;;;;;;5095117;28;20356;-70
2023/08/16 07:49:15;;;;;;;;;;;;;;;;;;5093745;28;19951;-72
2023/08/16 07:51:41;;;;;;;;;;;;;;;;;;5094535;28;19908;-70
2023/08/16 07:54:07;;;;;;;;;;;;;;;;;;5093721;28;19908;-71
2023/08/16 07:56:33;;;;;;;;;;;;;;;;;;5094603;28;19908;-71
2023/08/16 07:58:59;;;;;;;;;;;;;;;;;;5094308;28;19955;-72
2023/08/16 08:01:24;;;;;;;;;;;;;;;;;;5093429;28;19919;-72
2023/08/16 08:03:50;;;;;;;;;;;;;;;;;;5093983;28;19919;-71
2023/08/16 08:06:16;;;;;;;;;;;;;;;;;;5093508;28;19908;-70
2023/08/16 08:08:42;;;;;;;;;;;;;;;;;;5093907;28;19914;-71
2023/08/16 08:11:08;;;;;;;;;;;;;;;;;;5093320;28;20360;-70
2023/08/16 08:13:34;;;;;;;;;;;;;;;;;;5093946;28;19912;-71
2023/08/16 08:16:00;;;;;;;;;;;;;;;;;;5093667;28;19908;-71
2023/08/16 08:18:26;;;;;;;;;;;;;;;;;;5093336;28;19909;-70
2023/08/16 08:20:52;;;;;;;;;;;;;;;;;;5093593;28;19915;-71
2023/08/16 08:23:18;;;;;;;;;;;;;;;;;;5092835;28;20004;-71
2023/08/16 08:25:44;;;;;;;;;;;;;;;;;;5093586;28;19912;-70
2023/08/16 08:28:09;;;;;;;;;;;;;;;;;;5092552;28;19953;-70
2023/08/16 08:30:35;;;;;;;;;;;;;;;;;;5093659;28;20004;-71
2023/08/16 08:33:01;;;;;;;;;;;;;;;;;;5093413;28;19908;-70
2023/08/16 08:35:27;;;;;;;;;;;;;;;;;;5092898;28;19929;-70
2023/08/16 08:37:53;;;;;;;;;;;;;;;;;;5093513;28;20024;-71
2023/08/16 08:40:19;;;;;;;;;;;;;;;;;;5092305;28;19916;-71
2023/08/16 08:42:46;;;;;;;;;;;;;;;;;;5092901;28;19920;-72
2023/08/16 08:45:12;;;;;;;;;;;;;;;;;;5092503;28;20385;-71
2023/08/16 08:47:38;;;;;;;;;;;;;;;;;;5093347;28;19908;-71
2023/08/16 08:50:04;;;;;;;;;;;;;;;;;;5092871;28;19958;-70
2023/08/16 08:52:30;;;;;;;;;;;;;;;;;;5093340;28;19951;-71
2023/08/16 08:54:58;;;;;;;;;;;;;;;;;;5093196;28;19961;-71
2023/08/16 08:57:24;;;;;;;;;;;;;;;;;;5092534;28;19915;-71
2023/08/16 08:59:50;;;;;;;;;;;;;;;;;;5092950;28;19908;-71
2023/08/16 09:02:16;;;;;;;;;;;;;;;;;;5092396;28;19916;-70
2023/08/16 09:04:42;;;;;;;;;;;;;;;;;;5092930;28;20371;-71
2023/08/16 09:07:08;;;;;;;;;;;;;;;;;;5092226;28;19908;-70
2023/08/16 09:09:33;;;;;;;;;;;;;;;;;;5092967;28;20249;-70
2023/08/16 09:11:59;;;;;;;;;;;;;;;;;;5092414;28;19908;-71
2023/08/16 09:14:25;;;;;;;;;;;;;;;;;;5092056;28;20469;-71
2023/08/16 09:16:51;;;;;;;;;;;;;;;;;;5093018;28;19912;-71
2023/08/16 09:19:17;;;;;;;;;;;;;;;;;;5091943;28;19942;-70
2023/08/16 09:21:43;;;;;;;;;;;;;;;;;;5092905;28;20250;-71
2023/08/16 09:24:09;;;;;;;;;;;;;;;;;;5092040;28;19962;-70
2023/08/16 09:26:36;;;;;;;;;;;;;;;;;;5092562;28;19929;-70
2023/08/16 09:29:04;;;;;;;;;;;;;;;;;;5092905;28;19908;-71
2023/08/16 09:31:30;;;;;;;;;;;;;;;;;;5092359;28;19908;-71
2023/08/16 09:33:58;;;;;;;;;;;;;;;;;;5092895;28;20502;-72
2023/08/16 09:36:25;;;;;;;;;;;;;;;;;;5092008;28;19932;-71
2023/08/16 09:38:50;;;;;;;;;;;29.10;99.90;;;;;;5092520;28;19915;-71
2023/08/16 09:41:18;;;;;;;;;;;29.20;99.90;;;;;;5091815;28;19920;-71
2023/08/16 09:43:44;;;;;;;;;;;29.20;99.90;;;;;;5092578;28;20288;-71
2023/08/16 09:46:09;;;;;;;;;;;29.10;99.90;;;;;;5091992;28;19915;-71
2023/08/16 09:48:35;;;;;;;;;;;28.90;99.90;;;;;;5092568;28;19909;-71
2023/08/16 09:51:04;;;;;;;;;;;28.90;99.90;;;;;;5092256;28;20014;-71
2023/08/16 09:53:30;;;;;;;;;;;28.90;99.90;;;;;;5092145;28;19914;-71
2023/08/16 09:55:58;;;;;;;;;;;29.10;99.90;;;;;;5092674;28;19994;-71
2023/08/16 09:58:24;;;;;;;;;;;29.20;99.90;;;;;;5092097;28;19947;-71
2023/08/16 10:00:50;;;;;;;;;;;;;;;;;;5101830;28;19908;-73
2023/08/16 10:03:16;;;;;;;;;;;;;;;;;;5103827;28;19923;-71
2023/08/16 10:05:42;;;;;;;;;;;;;;;;;;5092848;28;19955;-71
2023/08/16 10:08:09;;;;;;;;;;;;;;;;;;5092084;28;20319;-71
2023/08/16 10:10:35;;;;;;;;;;;;;;;;;;5092072;28;20400;-71
2023/08/16 10:13:01;;;;;;;;;;;;;;;;;;5095429;28;19909;-71
2023/08/16 10:15:27;;;;;;;;;;;;;;;;;;5099854;28;20002;-72
2023/08/16 10:17:53;;;;;;;;;;;;;;;;;;5104512;28;20414;-71
2023/08/16 10:20:19;;;;;;;;;;;;;;;;;;5108710;28;19915;-72
2023/08/16 10:22:45;;;;;;;;;;;;;;;;;;5106658;28;19916;-70
2023/08/16 10:25:12;;;;;;;;;;;;;;;;;;5112497;28;19908;-70
2023/08/16 10:27:39;;;;;;;;;;;;;;;;;;5117225;28;19896;-71
2023/08/16 10:30:04;;;;;;;;;;;;;;;;;;5112796;28;19908;-70
2023/08/16 10:32:30;;;;;;;;;;;;;;;;;;5104652;28;20173;-71
2023/08/16 10:34:58;;;;;;;;;;;;;;;;;;5086881;28;20380;-70
2023/08/16 10:37:25;;;;;;;;;;;;;;;;;;5084853;28;19934;-70
2023/08/16 10:39:51;;;;;;;;;;;;;;;;;;5102867;28;19915;-71
2023/08/16 10:42:17;;;;;;;;;;;;;;;;;;5101915;28;20307;-71
2023/08/16 10:44:45;;;;;;;;;;;;;;;;;;5083075;28;19954;-72
2023/08/16 10:47:11;;;;;;;;;;;;;;;;;;5097113;28;19908;-70
2023/08/16 10:49:37;;;;;;;;;;;;;;;;;;5098412;28;19969;-70
2023/08/16 10:52:03;;;;;;;;;;;;;;;;;;5096442;28;19908;-71
2023/08/16 10:54:29;;;;;;;;;;;;;;;;;;5096320;28;19912;-71
2023/08/16 10:56:54;;;;;;;;;;;;;;;;;;5098115;28;19919;-71
2023/08/16 10:59:20;;;;;;;;;;;;;;;;;;5095722;28;20383;-71
2023/08/16 11:01:46;;;;;;;;;;;;;;;;;;5095922;28;20291;-71
2023/08/16 11:04:12;;;;;;;;;;;;;;;;;;5095518;28;19912;-71
2023/08/16 11:06:39;;;;;;;;;;;;;;;;;;5095380;28;20349;-71
2023/08/16 11:09:05;;;;;;;;;;;;;;;;;;5095553;28;19908;-71
2023/08/16 11:11:31;;;;;;;;;;;;;;;;;;5094539;28;19982;-72
2023/08/16 11:13:57;;;;;;;;;;;;;;;;;;5094975;28;19943;-71
2023/08/16 11:16:23;;;;;;;;;;;;;;;;;;5094491;28;19908;-72
2023/08/16 11:18:49;;;;;;;;;;;;;;;;;;5094900;28;19951;-71
2023/08/16 11:21:15;;;;;;;;;;;;;;;;;;5094542;28;20322;-72
2023/08/16 11:23:42;;;;;;;;;;;;;;;;;;5094778;28;19957;-71
2023/08/16 11:26:08;;;;;;;;;;;;;;;;;;5095168;28;20329;-72
2023/08/16 11:28:34;;;;;;;;;;;;;;;;;;5094118;28;19953;-72
2023/08/16 11:31:00;;;;;;;;;;;;;;;;;;5095053;28;19915;-72
2023/08/16 11:33:26;;;;;;;;;;;;;;;;;;5093930;28;19909;-71
2023/08/16 11:35:52;;;;;;;;;;;;;;;;;;5094898;28;19909;-72
2023/08/16 11:38:17;;;;;;;;;;;;;;;;;;5094359;28;19940;-71
2023/08/16 11:40:43;;;;;;;;;;;;;;;;;;5094848;28;20293;-71
2023/08/16 11:43:09;;;;;;;;;;;;;;;;;;5093921;28;20041;-72
2023/08/16 11:45:35;;;;;;;;;;;;;;;;;;5093691;28;19954;-71
2023/08/16 11:48:02;;;;;;;;;;;;;;;;;;5094559;28;19999;-71
2023/08/16 11:50:28;;;;;;;;;;;;;;;;;;5093697;28;19951;-71
2023/08/16 11:52:54;;;;;;;;;;;;;;;;;;5094281;28;20360;-72
2023/08/16 11:55:20;;;;;;;;;;;;;;;;;;5093470;28;20011;-72
2023/08/16 11:57:46;;;;;;;;;;;;;;;;;;5094196;28;19988;-71
2023/08/16 12:00:14;;;;;;;;;;;;;;;;;;5094376;28;20037;-72
2023/08/16 12:02:40;;;;;;;;;;;;;;;;;;5093596;28;19923;-71
2023/08/16 12:05:06;;;;;;;;;;;;;;;;;;5094196;28;19908;-72
2023/08/16 12:07:32;;;;;;;;;;;;;;;;;;5093261;28;19921;-71
2023/08/16 12:09:58;;;;;;;;;;;;;;;;;;5093895;28;20118;-72
2023/08/16 12:12:24;;;;;;;;;;;;;;;;;;5092780;28;19912;-72
2023/08/16 12:14:50;;;;;;;;;;;;;;;;;;5093703;28;19908;-71
2023/08/16 12:17:16;;;;;;;;;;;;;;;;;;5093507;28;19916;-70
2023/08/16 12:19:41;;;;;;;;;;;33.00;98.60;;;;;;5093214;28;19990;-71
2023/08/16 12:22:07;;;;;;;;;;;33.10;98.80;;;;;;5093739;28;19916;-71
2023/08/16 12:24:33;;;;;;;;;;;33.20;98.20;;;;;;5092956;28;19908;-72
2023/08/16 12:26:59;;;;;;;;;;;33.10;98.30;;;;;;5093458;28;20482;-71
2023/08/16 12:29:26;;;;;;;;;;;33.00;98.30;;;;;;5092987;28;19930;-70
2023/08/16 12:31:51;;;;;;;;;;;32.80;98.50;;;;;;5093637;28;19908;-72
2023/08/16 12:34:17;;;;;;;;;;;;;;;;;;5093077;28;19915;-71
2023/08/16 12:36:43;;;;;;;;;;;;;;;;;;5093040;28;19909;-71
2023/08/16 12:39:09;;;;;;;;;;;;;;;;;;5093988;28;20353;-72
2023/08/16 12:41:35;;;;;;;;;;;;;;;;;;5092071;28;19920;-72
2023/08/16 12:44:03;;;;;;;;;;;;;;;;;;5093113;28;20333;-71
2023/08/16 12:46:29;;;;;;;;;;;;;;;;;;5091771;28;20248;-71
2023/08/16 12:48:55;;;;;;;;;;;;;;;;;;5093154;28;19915;-71
2023/08/16 12:51:21;;;;;;;;;;;;;;;;;;5092375;28;19912;-71
2023/08/16 12:53:47;;;;;;;;;;;;;;;;;;5093075;28;20364;-72
2023/08/16 12:56:13;;;;;;;;;;;;;;;;;;5093258;28;19908;-71
2023/08/16 12:58:38;;;;;;;;;;;;;;;;;;5092162;28;19950;-70
2023/08/16 13:01:06;;;;;;;;;;;;;;;;;;5093102;28;19914;-71
2023/08/16 13:03:32;;;;;;;;;;;;;;;;;;5092358;28;20237;-71
2023/08/16 13:05:58;;;;;;;;;;;;;;;;;;5093101;28;19908;-72
2023/08/16 13:08:24;;;;;;;;;;;;;;;;;;5092350;28;19912;-71
2023/08/16 13:10:50;;;;;;;;;;;;;;;;;;5092712;28;19908;-71
2023/08/16 13:13:16;;;;;;;;;;;;;;;;;;5092861;28;19951;-72
2023/08/16 13:15:42;;;;;;;;;;;;;;;;;;5092221;28;19912;-71
2023/08/16 13:18:08;;;;;;;;;;;;;;;;;;5092745;28;19908;-71
2023/08/16 13:20:34;;;;;;;;;;;;;;;;;;5091936;28;19978;-71
2023/08/16 13:22:59;;;;;;;;;;;;;;;;;;5092641;28;20311;-71
2023/08/16 13:25:25;;;;;;;;;;;;;;;;;;5092274;28;19908;-71
2023/08/16 13:27:51;;;;;;;;;;;;;;;;;;5092533;28;19915;-71
2023/08/16 13:30:17;;;;;;;;;;;;;;;;;;5092761;28;19915;-72
2023/08/16 13:32:43;;;;;;;;;;;;;;;;;;5091603;28;19908;-71
2023/08/16 13:35:09;;;;;;;;;;;;;;;;;;5092781;28;19908;-71
2023/08/16 13:37:35;;;;;;;;;;;;;;;;;;5091897;28;19908;-71
2023/08/16 13:40:01;;;;;;;;;;;;;;;;;;5092776;28;20010;-72
2023/08/16 13:42:27;;;;;;;;;;;;;;;;;;5091409;28;20329;-71
2023/08/16 13:44:52;;;;;;;;;;;;;;;;;;5092419;28;19908;-72
2023/08/16 13:47:18;;;;;;;;;;;;;;;;;;5091984;28;19947;-72
2023/08/16 13:49:45;;;;;;;;;;;;;;;;;;5091609;28;20265;-71
2023/08/16 13:52:11;;;;;;;;;;;;;;;;;;5092370;28;19926;-72
2023/08/16 13:54:37;;;;;;;;;;;;;;;;;;5091511;28;19909;-71
2023/08/16 13:57:03;;;;;;;;;;;;;;;;;;5092595;28;19908;-71
2023/08/16 13:59:29;;;;;;;;;;;;;;;;;;5095684;28;19908;-71
2023/08/16 14:01:55;;;;;;;;;;;;;;;;;;5096007;28;20056;-72
2023/08/16 14:04:21;;;;;;;;;;;;;;;;;;5096032;28;20049;-71
2023/08/16 14:06:47;;;;;;;;;;;;;;;;;;5095736;28;20337;-72
2023/08/16 14:09:13;;;;;;;;;;;;;;;;;;5096404;28;19915;-72
2023/08/16 14:11:41;;;;;;;;;;;;;;;;;;5095108;28;19908;-72
2023/08/16 14:14:06;;;;;;;;;;;;;;;;;;5096078;28;19908;-72
2023/08/16 14:16:32;;;;;;;;;;;;;;;;;;5095609;28;19908;-72
2023/08/16 14:18:58;;;;;;;;;;;;;;;;;;5096335;28;19961;-72
2023/08/16 14:21:24;;;;;;;;;;;;;;;;;;5095795;28;20320;-72
2023/08/16 14:23:50;;;;;;;;;;;;;;;;;;5095870;28;19912;-72
2023/08/16 14:26:18;;;;;;;;;;;;;;;;;;5077748;28;20290;-72
2023/08/16 14:28:44;;;;;;;;;;;;;;;;;;5095170;28;19933;-72
2023/08/16 14:31:10;;;;;;;;;;;;;;;;;;5095950;28;19912;-72
2023/08/16 14:33:35;;;;;;;;;;;;;;;;;;5095020;28;19916;-71
2023/08/16 14:36:01;;;;;;;;;;;;;;;;;;5095985;28;20246;-72
2023/08/16 14:38:27;;;;;;;;;;;;;;;;;;5095187;28;19962;-71
2023/08/16 14:40:53;;;;;;;;;;;;;;;;;;5095659;28;20253;-71
2023/08/16 14:43:19;;;;;;;;;;;;;;;;;;5095877;28;19916;-71
2023/08/16 14:45:45;;;;;;;;;;;;;;;;;;5094777;28;20591;-71
2023/08/16 14:48:11;;;;;;;;;;;;;;;;;;5095656;28;19915;-71
2023/08/16 14:50:37;;;;;;;;;;;;;;;;;;5094638;28;20357;-71
2023/08/16 14:53:03;;;;;;;;;;;;;;;;;;5095339;28;19996;-71
2023/08/16 14:55:29;;;;;;;;;;;;;;;;;;5094752;28;19912;-70
2023/08/16 14:57:55;;;;;;;;;;;;;;;;;;5095669;28;20011;-71
2023/08/16 15:00:21;;;;;;;;;;;;;;;;;;5095441;28;19947;-71
2023/08/16 15:02:46;;;;;;;;;;;;;;;;;;5094584;28;20356;-71
2023/08/16 15:05:12;;;;;;;;;;;;;;;;;;5095044;28;19908;-71
2023/08/16 15:07:38;;;;;;;;;;;;;;;;;;5094728;28;20349;-70
2023/08/16 15:10:04;;;;;;;;;;;;;;;;;;5094666;28;19912;-71
2023/08/16 15:12:31;;;;;;;;;;;;;;;;;;5094141;28;19966;-71
2023/08/16 15:14:57;;;;;;;;;;;;;;;;;;5095110;28;19908;-70
2023/08/16 15:17:23;;;;;;;;;;;;;;;;;;5094796;28;19915;-70
2023/08/16 15:19:48;;;;;;;;;;;;;;;;;;5094701;28;20170;-70
2023/08/16 15:22:14;;;;;;;;;;;;;;;;;;5094760;28;19927;-72
2023/08/16 15:24:40;;;;;;;;;;;;;;;;;;5094284;28;20384;-71
2023/08/16 15:27:06;;;;;;;;;;;;;;;;;;5094716;28;19936;-71
2023/08/16 15:29:32;;;;;;;;;;;;;;;;;;5094283;28;19909;-70
2023/08/16 15:31:58;;;;;;;;;;;;;;;;;;5095000;28;19908;-71
2023/08/16 15:34:24;;;;;;;;;;;;;;;;;;5094886;28;19958;-72
2023/08/16 15:36:49;;;;;;;;;;;;;;;;;;5094159;28;20491;-71
2023/08/16 15:39:15;;;;;;;;;;;;;;;;;;5094633;28;19908;-71
2023/08/16 15:41:41;;;;;;;;;;;;;;;;;;5093716;28;20410;-71
2023/08/16 15:44:07;;;;;;;;;;;;;;;;;;5094810;28;19914;-71
2023/08/16 15:46:33;;;;;;;;;;;;;;;;;;5094094;28;19908;-73
2023/08/16 15:48:59;;;;;;;;;;;;;;;;;;5094780;28;19962;-71
2023/08/16 15:51:25;;;;;;;;;;;;;;;;;;5094642;28;20305;-73
2023/08/16 15:53:51;;;;;;;;;;;;;;;;;;5093982;28;20513;-71
2023/08/16 15:56:16;;;;;;;;;;;27.70;98.70;;;;;;5094647;28;19995;-72
2023/08/16 15:58:42;;;;;;;;;;;27.60;99.30;;;;;;5093659;28;20280;-71
2023/08/16 16:01:07;;;;;;;;;;;27.20;99.90;;;;;;5094436;28;19912;-72
2023/08/16 16:03:33;;;;;;;;;;;;;;;;;;5093281;28;19927;-70
2023/08/16 16:05:59;;;;;;;;;;;;;;;;;;5094395;28;19915;-70
2023/08/16 16:08:28;;;;;;;;;;;;;;;;;;5094158;28;19966;-70
2023/08/16 16:10:54;;;;;;;;;;;;;;;;;;5093609;28;19917;-70
2023/08/16 16:13:20;;;;;;;;;;;;;;;;;;5094006;28;20413;-70
2023/08/16 16:15:46;;;;;;;;;;;25.10;99.90;;;;;;5093419;28;19915;-70
2023/08/16 16:18:11;;;;;;;;;;;25.10;99.90;;;;;;5094073;28;19914;-70
2023/08/16 16:20:37;;;;;;;;;;;24.70;99.90;;;;;;5092678;28;20264;-70